Seward, AK

9:17 PM AKDT on August 23, 2016 (GMT -0800)
Seward | | Change Station

Elev 20 ft 60.13 °N, 149.42 °W | Updated 15 minutes ago

Light Rain
Light Rain Mist
56 °F
Feels Like 56 °F
N
6
Wind Variable Wind from SE

Today
High -- | Low -- °F
--% Chance of Precip.
Yesterday
High -- | Low -- °F
Precip. -- in
Pressure 30.19 in
Visibility 6.0 miles
Clouds Scattered Clouds 1300 ft
Mostly Cloudy 2200 ft
Overcast 3500 ft
Dew Point 55 °F
Humidity 97%
Rainfall 0.84 in
Snow Depth Not available.
6:32 AM 9:25 PM
Waning Gibbous, 61% visible
SPECI PAWD 240502Z AUTO 14005KT 6SM -RA BR SCT013 BKN022 OVC035 13/13 A3019 RMK AO2 P0000 T01330128 TSNO
Pressure 30.19 in
Visibility 6.0 miles
Clouds Scattered Clouds 1300 ft
Mostly Cloudy 2200 ft
Overcast 3500 ft
Dew Point 55 °F
Humidity 97%
Rainfall 0.84 in
Snow Depth Not available.
6:32 AM 9:25 PM
Waning Gibbous, 61% visible
SPECI PAWD 240502Z AUTO 14005KT 6SM -RA BR SCT013 BKN022 OVC035 13/13 A3019 RMK AO2 P0000 T01330128 TSNO

10-Day Weather Forecast

Almanac

Astronomy

Aug. 23, 2016 Rise Set
Actual Time
Civil Twilight
Nautical Twilight
Astronomical Twilight
Moon
Length of Visible Light
Length of Day
Tomorrow will be .
, % of the Moon is Illuminated

Today's Extremes

State Highs State Lows

Community

WunderPhotos

Upload Photos

1,934,554 photos uploaded!

WunderBlog® & News

Nearby

Air Quality

  Air Quality AQ Index Pollutant
Not available.

Snow Depth

Station Depth Elevation

Earthquake Activity

City Distance Mag. Time & Date
Minimum magnitude displayed is 2.5.

Coastal Water Temperatures

Place Temperature

Stations

Nearby Weather Stations

Station Location Temp. Windchill Dew Point Humidity Wind Precip. Elev Updated Type
                   

Watches & Warnings

There are currently no watches in effect.